sensor_id;sensor_type;location;lat;lon;timestamp;P1;durP1;ratioP1;P2;durP2;ratioP2
17773;SDS011;9011;33.236;-97.118;2023-03-01T00:00:00;5.07;;;1.10;;
17773;SDS011;9011;33.236;-97.118;2023-03-01T00:02:30;5.40;;;1.00;;
17773;SDS011;9011;33.236;-97.118;2023-03-01T00:04:58;6.50;;;1.00;;
17773;SDS011;9011;33.236;-97.118;2023-03-01T00:07:27;3.65;;;1.05;;
17773;SDS011;9011;33.236;-97.118;2023-03-01T00:10:11;17.92;;;3.05;;
17773;SDS011;9011;33.236;-97.118;2023-03-01T00:12:39;12.75;;;2.17;;
17773;SDS011;9011;33.236;-97.118;2023-03-01T00:15:08;8.73;;;1.15;;
17773;SDS011;9011;33.236;-97.118;2023-03-01T00:17:39;9.30;;;1.02;;
17773;SDS011;9011;33.236;-97.118;2023-03-01T00:20:10;6.15;;;1.23;;
17773;SDS011;9011;33.236;-97.118;2023-03-01T00:22:45;14.93;;;2.50;;
17773;SDS011;9011;33.236;-97.118;2023-03-01T00:25:17;26.23;;;3.63;;
17773;SDS011;9011;33.236;-97.118;2023-03-01T00:27:57;17.23;;;3.13;;
17773;SDS011;9011;33.236;-97.118;2023-03-01T00:30:28;21.48;;;2.67;;
17773;SDS011;9011;33.236;-97.118;2023-03-01T00:33:06;10.02;;;1.38;;
17773;SDS011;9011;33.236;-97.118;2023-03-01T00:35:34;5.32;;;0.90;;
17773;SDS011;9011;33.236;-97.118;2023-03-01T00:38:04;2.42;;;0.80;;
17773;SDS011;9011;33.236;-97.118;2023-03-01T00:40:35;6.97;;;1.10;;
17773;SDS011;9011;33.236;-97.118;2023-03-01T00:43:06;5.85;;;1.05;;
17773;SDS011;9011;33.236;-97.118;2023-03-01T00:45:35;17.38;;;2.67;;
17773;SDS011;9011;33.236;-97.118;2023-03-01T00:48:04;33.17;;;3.70;;
17773;SDS011;9011;33.236;-97.118;2023-03-01T00:50:33;7.30;;;2.00;;
17773;SDS011;9011;33.236;-97.118;2023-03-01T00:53:04;8.70;;;1.20;;
17773;SDS011;9011;33.236;-97.118;2023-03-01T00:55:32;11.98;;;1.40;;
17773;SDS011;9011;33.236;-97.118;2023-03-01T00:58:07;6.00;;;1.00;;
17773;SDS011;9011;33.236;-97.118;2023-03-01T01:00:37;4.88;;;1.30;;
17773;SDS011;9011;33.236;-97.118;2023-03-01T01:03:13;16.30;;;2.38;;
17773;SDS011;9011;33.236;-97.118;2023-03-01T01:05:55;9.95;;;1.50;;
17773;SDS011;9011;33.236;-97.118;2023-03-01T01:08:30;8.60;;;1.30;;
17773;SDS011;9011;33.236;-97.118;2023-03-01T01:11:00;5.72;;;1.23;;
17773;SDS011;9011;33.236;-97.118;2023-03-01T01:13:31;2.30;;;0.95;;
17773;SDS011;9011;33.236;-97.118;2023-03-01T01:16:00;4.75;;;1.00;;
17773;SDS011;9011;33.236;-97.118;2023-03-01T01:18:29;3.53;;;0.60;;
17773;SDS011;9011;33.236;-97.118;2023-03-01T01:20:58;3.45;;;1.17;;
17773;SDS011;9011;33.236;-97.118;2023-03-01T01:23:32;3.58;;;0.80;;
17773;SDS011;9011;33.236;-97.118;2023-03-01T01:26:06;10.18;;;1.50;;
17773;SDS011;9011;33.236;-97.118;2023-03-01T01:28:36;11.05;;;1.42;;
17773;SDS011;9011;33.236;-97.118;2023-03-01T01:31:10;12.65;;;2.03;;
17773;SDS011;9011;33.236;-97.118;2023-03-01T01:33:42;9.00;;;1.13;;
17773;SDS011;9011;33.236;-97.118;2023-03-01T01:36:15;6.40;;;1.48;;
17773;SDS011;9011;33.236;-97.118;2023-03-01T01:38:44;9.70;;;1.20;;
17773;SDS011;9011;33.236;-97.118;2023-03-01T01:41:15;9.43;;;2.00;;
17773;SDS011;9011;33.236;-97.118;2023-03-01T01:46:47;5.07;;;1.00;;
17773;SDS011;9011;33.236;-97.118;2023-03-01T01:49:28;5.50;;;1.25;;
17773;SDS011;9011;33.236;-97.118;2023-03-01T01:52:05;2.55;;;0.80;;
17773;SDS011;9011;33.236;-97.118;2023-03-01T01:54:47;3.53;;;1.30;;
17773;SDS011;9011;33.236;-97.118;2023-03-01T01:57:25;1.88;;;1.23;;
17773;SDS011;9011;33.236;-97.118;2023-03-01T02:00:07;2.50;;;0.90;;
17773;SDS011;9011;33.236;-97.118;2023-03-01T02:02:47;1.80;;;0.63;;
17773;SDS011;9011;33.236;-97.118;2023-03-01T02:05:22;2.22;;;0.80;;
17773;SDS011;9011;33.236;-97.118;2023-03-01T02:07:56;2.63;;;0.80;;
17773;SDS011;9011;33.236;-97.118;2023-03-01T02:10:25;2.25;;;0.93;;
17773;SDS011;9011;33.236;-97.118;2023-03-01T02:12:57;4.68;;;1.10;;
17773;SDS011;9011;33.236;-97.118;2023-03-01T02:15:26;1.95;;;0.82;;
17773;SDS011;9011;33.236;-97.118;2023-03-01T02:17:58;3.88;;;0.95;;
17773;SDS011;9011;33.236;-97.118;2023-03-01T02:20:29;1.88;;;1.15;;
17773;SDS011;9011;33.236;-97.118;2023-03-01T02:23:04;1.95;;;0.77;;
17773;SDS011;9011;33.236;-97.118;2023-03-01T02:25:36;1.63;;;0.73;;
17773;SDS011;9011;33.236;-97.118;2023-03-01T02:28:10;3.28;;;1.17;;
17773;SDS011;9011;33.236;-97.118;2023-03-01T02:30:50;2.45;;;0.85;;
17773;SDS011;9011;33.236;-97.118;2023-03-01T02:33:37;2.53;;;1.00;;
17773;SDS011;9011;33.236;-97.118;2023-03-01T02:36:07;6.18;;;1.25;;
17773;SDS011;9011;33.236;-97.118;2023-03-01T02:38:39;8.10;;;1.30;;
17773;SDS011;9011;33.236;-97.118;2023-03-01T02:41:08;4.65;;;1.05;;
17773;SDS011;9011;33.236;-97.118;2023-03-01T02:43:40;9.15;;;1.25;;
17773;SDS011;9011;33.236;-97.118;2023-03-01T02:46:13;9.18;;;1.50;;
17773;SDS011;9011;33.236;-97.118;2023-03-01T02:48:43;4.68;;;1.00;;
17773;SDS011;9011;33.236;-97.118;2023-03-01T02:51:23;2.95;;;1.08;;
17773;SDS011;9011;33.236;-97.118;2023-03-01T02:54:12;2.38;;;1.20;;
17773;SDS011;9011;33.236;-97.118;2023-03-01T02:57:29;1.92;;;1.15;;
17773;SDS011;9011;33.236;-97.118;2023-03-01T03:21:37;4.05;;;1.20;;
17773;SDS011;9011;33.236;-97.118;2023-03-01T03:41:21;3.50;;;1.48;;
17773;SDS011;9011;33.236;-97.118;2023-03-01T03:43:57;5.05;;;1.50;;
17773;SDS011;9011;33.236;-97.118;2023-03-01T03:46:25;3.13;;;1.40;;
17773;SDS011;9011;33.236;-97.118;2023-03-01T03:49:44;5.10;;;1.55;;
17773;SDS011;9011;33.236;-97.118;2023-03-01T03:52:16;4.55;;;1.65;;
17773;SDS011;9011;33.236;-97.118;2023-03-01T03:54:44;1.90;;;1.40;;
17773;SDS011;9011;33.236;-97.118;2023-03-01T03:57:14;2.33;;;1.63;;
17773;SDS011;9011;33.236;-97.118;2023-03-01T03:59:42;4.95;;;1.75;;
17773;SDS011;9011;33.236;-97.118;2023-03-01T04:02:15;4.03;;;1.65;;
17773;SDS011;9011;33.236;-97.118;2023-03-01T04:07:35;4.35;;;1.60;;
17773;SDS011;9011;33.236;-97.118;2023-03-01T04:10:07;4.43;;;1.92;;
17773;SDS011;9011;33.236;-97.118;2023-03-01T04:12:48;4.15;;;1.90;;
17773;SDS011;9011;33.236;-97.118;2023-03-01T04:15:21;4.85;;;2.08;;
17773;SDS011;9011;33.236;-97.118;2023-03-01T04:17:51;12.40;;;2.67;;
17773;SDS011;9011;33.236;-97.118;2023-03-01T04:20:21;7.03;;;2.38;;
17773;SDS011;9011;33.236;-97.118;2023-03-01T04:22:51;5.43;;;1.85;;
17773;SDS011;9011;33.236;-97.118;2023-03-01T04:25:30;3.10;;;1.70;;
17773;SDS011;9011;33.236;-97.118;2023-03-01T04:28:01;4.03;;;1.88;;
17773;SDS011;9011;33.236;-97.118;2023-03-01T04:30:31;4.15;;;2.05;;
17773;SDS011;9011;33.236;-97.118;2023-03-01T04:33:05;8.18;;;2.20;;
17773;SDS011;9011;33.236;-97.118;2023-03-01T04:35:43;6.43;;;2.10;;
17773;SDS011;9011;33.236;-97.118;2023-03-01T04:38:16;3.55;;;2.10;;
17773;SDS011;9011;33.236;-97.118;2023-03-01T04:40:48;7.07;;;2.58;;
17773;SDS011;9011;33.236;-97.118;2023-03-01T04:43:18;7.40;;;2.13;;
17773;SDS011;9011;33.236;-97.118;2023-03-01T04:45:47;4.47;;;2.15;;
17773;SDS011;9011;33.236;-97.118;2023-03-01T04:48:16;5.43;;;2.50;;
17773;SDS011;9011;33.236;-97.118;2023-03-01T04:50:44;3.50;;;2.10;;
17773;SDS011;9011;33.236;-97.118;2023-03-01T04:53:13;3.30;;;2.17;;
17773;SDS011;9011;33.236;-97.118;2023-03-01T04:55:42;3.10;;;2.00;;
17773;SDS011;9011;33.236;-97.118;2023-03-01T04:58:10;9.15;;;2.30;;
17773;SDS011;9011;33.236;-97.118;2023-03-01T05:00:41;7.07;;;2.67;;
17773;SDS011;9011;33.236;-97.118;2023-03-01T05:03:09;4.72;;;2.20;;
17773;SDS011;9011;33.236;-97.118;2023-03-01T05:05:38;5.57;;;2.33;;
17773;SDS011;9011;33.236;-97.118;2023-03-01T05:08:07;8.07;;;2.63;;
17773;SDS011;9011;33.236;-97.118;2023-03-01T05:10:45;8.00;;;2.88;;
17773;SDS011;9011;33.236;-97.118;2023-03-01T05:13:17;4.15;;;2.60;;
17773;SDS011;9011;33.236;-97.118;2023-03-01T05:15:53;5.72;;;2.83;;
17773;SDS011;9011;33.236;-97.118;2023-03-01T05:18:25;4.47;;;2.38;;
17773;SDS011;9011;33.236;-97.118;2023-03-01T05:21:01;7.75;;;2.95;;
17773;SDS011;9011;33.236;-97.118;2023-03-01T05:23:31;7.15;;;2.70;;
17773;SDS011;9011;33.236;-97.118;2023-03-01T05:26:01;4.55;;;3.00;;
17773;SDS011;9011;33.236;-97.118;2023-03-01T05:28:31;4.65;;;2.60;;
17773;SDS011;9011;33.236;-97.118;2023-03-01T05:31:01;4.78;;;2.55;;
17773;SDS011;9011;33.236;-97.118;2023-03-01T05:33:35;5.28;;;3.28;;
17773;SDS011;9011;33.236;-97.118;2023-03-01T05:36:04;5.45;;;2.90;;
17773;SDS011;9011;33.236;-97.118;2023-03-01T05:38:33;6.93;;;3.20;;
17773;SDS011;9011;33.236;-97.118;2023-03-01T05:41:04;7.30;;;3.45;;
17773;SDS011;9011;33.236;-97.118;2023-03-01T05:43:40;10.35;;;3.53;;
17773;SDS011;9011;33.236;-97.118;2023-03-01T05:46:12;6.55;;;2.95;;
17773;SDS011;9011;33.236;-97.118;2023-03-01T05:48:40;6.47;;;2.63;;
17773;SDS011;9011;33.236;-97.118;2023-03-01T05:51:10;5.00;;;2.65;;
17773;SDS011;9011;33.236;-97.118;2023-03-01T05:53:39;8.35;;;3.03;;
17773;SDS011;9011;33.236;-97.118;2023-03-01T05:56:14;5.75;;;2.83;;
17773;SDS011;9011;33.236;-97.118;2023-03-01T05:58:44;10.27;;;3.63;;
17773;SDS011;9011;33.236;-97.118;2023-03-01T06:01:14;6.78;;;3.20;;
17773;SDS011;9011;33.236;-97.118;2023-03-01T06:03:43;6.25;;;3.58;;
17773;SDS011;9011;33.236;-97.118;2023-03-01T06:06:11;7.95;;;3.13;;
17773;SDS011;9011;33.236;-97.118;2023-03-01T06:08:40;6.85;;;3.38;;
17773;SDS011;9011;33.236;-97.118;2023-03-01T06:11:09;5.47;;;3.30;;
17773;SDS011;9011;33.236;-97.118;2023-03-01T06:13:38;5.38;;;2.78;;
17773;SDS011;9011;33.236;-97.118;2023-03-01T06:16:08;7.88;;;3.17;;
17773;SDS011;9011;33.236;-97.118;2023-03-01T06:18:39;6.13;;;3.28;;
17773;SDS011;9011;33.236;-97.118;2023-03-01T06:21:08;8.98;;;2.88;;
17773;SDS011;9011;33.236;-97.118;2023-03-01T06:23:36;8.82;;;3.28;;
17773;SDS011;9011;33.236;-97.118;2023-03-01T06:26:06;6.15;;;3.00;;
17773;SDS011;9011;33.236;-97.118;2023-03-01T06:28:35;7.00;;;3.25;;
17773;SDS011;9011;33.236;-97.118;2023-03-01T06:31:06;10.52;;;3.42;;
17773;SDS011;9011;33.236;-97.118;2023-03-01T06:33:45;6.20;;;2.97;;
17773;SDS011;9011;33.236;-97.118;2023-03-01T06:36:25;8.95;;;3.88;;
17773;SDS011;9011;33.236;-97.118;2023-03-01T06:38:56;7.93;;;3.47;;
17773;SDS011;9011;33.236;-97.118;2023-03-01T06:41:27;10.77;;;3.78;;
17773;SDS011;9011;33.236;-97.118;2023-03-01T06:43:59;5.53;;;3.60;;
17773;SDS011;9011;33.236;-97.118;2023-03-01T06:46:28;6.18;;;2.80;;
17773;SDS011;9011;33.236;-97.118;2023-03-01T06:49:02;6.43;;;3.40;;
17773;SDS011;9011;33.236;-97.118;2023-03-01T06:51:38;8.38;;;3.25;;
17773;SDS011;9011;33.236;-97.118;2023-03-01T06:54:07;6.20;;;3.67;;
17773;SDS011;9011;33.236;-97.118;2023-03-01T06:56:35;3.95;;;3.45;;
17773;SDS011;9011;33.236;-97.118;2023-03-01T06:59:04;5.28;;;3.45;;
17773;SDS011;9011;33.236;-97.118;2023-03-01T07:01:33;5.20;;;3.60;;
17773;SDS011;9011;33.236;-97.118;2023-03-01T07:04:05;6.00;;;3.75;;
17773;SDS011;9011;33.236;-97.118;2023-03-01T07:06:37;9.30;;;3.78;;
17773;SDS011;9011;33.236;-97.118;2023-03-01T07:09:19;11.18;;;3.97;;
17773;SDS011;9011;33.236;-97.118;2023-03-01T07:11:51;6.45;;;3.90;;
17773;SDS011;9011;33.236;-97.118;2023-03-01T07:14:19;8.77;;;4.15;;
17773;SDS011;9011;33.236;-97.118;2023-03-01T07:16:49;8.10;;;4.75;;
17773;SDS011;9011;33.236;-97.118;2023-03-01T07:19:23;8.98;;;4.35;;
17773;SDS011;9011;33.236;-97.118;2023-03-01T07:22:02;6.93;;;4.07;;
17773;SDS011;9011;33.236;-97.118;2023-03-01T07:24:33;8.20;;;4.38;;
17773;SDS011;9011;33.236;-97.118;2023-03-01T07:27:01;7.30;;;4.80;;
17773;SDS011;9011;33.236;-97.118;2023-03-01T07:29:30;5.72;;;4.38;;
17773;SDS011;9011;33.236;-97.118;2023-03-01T07:31:58;9.13;;;4.80;;
17773;SDS011;9011;33.236;-97.118;2023-03-01T07:34:30;8.90;;;4.88;;
17773;SDS011;9011;33.236;-97.118;2023-03-01T07:36:58;6.63;;;4.63;;
17773;SDS011;9011;33.236;-97.118;2023-03-01T07:39:27;8.57;;;5.00;;
17773;SDS011;9011;33.236;-97.118;2023-03-01T07:41:58;9.05;;;5.03;;
17773;SDS011;9011;33.236;-97.118;2023-03-01T07:44:30;7.63;;;4.75;;
17773;SDS011;9011;33.236;-97.118;2023-03-01T07:47:12;10.00;;;5.43;;
17773;SDS011;9011;33.236;-97.118;2023-03-01T07:49:42;9.20;;;6.03;;
17773;SDS011;9011;33.236;-97.118;2023-03-01T07:52:25;8.18;;;6.18;;
17773;SDS011;9011;33.236;-97.118;2023-03-01T07:54:54;11.05;;;5.55;;
17773;SDS011;9011;33.236;-97.118;2023-03-01T07:57:41;9.30;;;6.05;;
17773;SDS011;9011;33.236;-97.118;2023-03-01T08:00:24;10.32;;;6.38;;
17773;SDS011;9011;33.236;-97.118;2023-03-01T08:02:53;10.85;;;6.40;;
17773;SDS011;9011;33.236;-97.118;2023-03-01T08:05:28;11.18;;;6.00;;
17773;SDS011;9011;33.236;-97.118;2023-03-01T08:08:00;10.63;;;6.90;;
17773;SDS011;9011;33.236;-97.118;2023-03-01T08:10:34;10.57;;;6.35;;
17773;SDS011;9011;33.236;-97.118;2023-03-01T08:13:05;11.43;;;6.90;;
17773;SDS011;9011;33.236;-97.118;2023-03-01T08:15:35;12.15;;;8.32;;
17773;SDS011;9011;33.236;-97.118;2023-03-01T08:18:14;14.15;;;8.23;;
17773;SDS011;9011;33.236;-97.118;2023-03-01T08:21:10;9.68;;;7.35;;
17773;SDS011;9011;33.236;-97.118;2023-03-01T08:23:45;12.27;;;8.05;;
17773;SDS011;9011;33.236;-97.118;2023-03-01T08:26:14;9.63;;;8.05;;
17773;SDS011;9011;33.236;-97.118;2023-03-01T08:28:53;12.93;;;8.38;;
17773;SDS011;9011;33.236;-97.118;2023-03-01T08:31:22;10.07;;;8.43;;
17773;SDS011;9011;33.236;-97.118;2023-03-01T08:33:54;12.07;;;8.70;;
17773;SDS011;9011;33.236;-97.118;2023-03-01T08:36:26;15.77;;;10.25;;
17773;SDS011;9011;33.236;-97.118;2023-03-01T08:38:58;17.70;;;9.18;;
17773;SDS011;9011;33.236;-97.118;2023-03-01T08:41:27;16.02;;;9.68;;
17773;SDS011;9011;33.236;-97.118;2023-03-01T08:43:56;13.45;;;9.82;;
17773;SDS011;9011;33.236;-97.118;2023-03-01T08:46:26;12.57;;;9.40;;
17773;SDS011;9011;33.236;-97.118;2023-03-01T08:48:55;15.40;;;10.30;;
17773;SDS011;9011;33.236;-97.118;2023-03-01T08:51:24;17.77;;;10.05;;
17773;SDS011;9011;33.236;-97.118;2023-03-01T08:53:54;11.43;;;9.93;;
17773;SDS011;9011;33.236;-97.118;2023-03-01T08:56:26;15.05;;;10.57;;
17773;SDS011;9011;33.236;-97.118;2023-03-01T08:58:57;14.40;;;10.13;;
17773;SDS011;9011;33.236;-97.118;2023-03-01T09:01:25;16.42;;;11.00;;
17773;SDS011;9011;33.236;-97.118;2023-03-01T09:03:54;14.57;;;10.57;;
17773;SDS011;9011;33.236;-97.118;2023-03-01T09:06:25;16.75;;;11.52;;
17773;SDS011;9011;33.236;-97.118;2023-03-01T09:08:58;15.65;;;11.38;;
17773;SDS011;9011;33.236;-97.118;2023-03-01T09:11:27;12.80;;;9.63;;
17773;SDS011;9011;33.236;-97.118;2023-03-01T09:14:00;18.80;;;11.77;;
17773;SDS011;9011;33.236;-97.118;2023-03-01T09:16:34;18.15;;;11.75;;
17773;SDS011;9011;33.236;-97.118;2023-03-01T09:19:03;16.15;;;11.32;;
17773;SDS011;9011;33.236;-97.118;2023-03-01T09:21:33;18.98;;;11.48;;
17773;SDS011;9011;33.236;-97.118;2023-03-01T09:24:18;16.52;;;12.13;;
17773;SDS011;9011;33.236;-97.118;2023-03-01T09:26:48;15.02;;;11.05;;
17773;SDS011;9011;33.236;-97.118;2023-03-01T09:29:17;18.15;;;11.70;;
17773;SDS011;9011;33.236;-97.118;2023-03-01T09:31:45;17.98;;;12.07;;
17773;SDS011;9011;33.236;-97.118;2023-03-01T09:34:17;18.10;;;12.60;;
17773;SDS011;9011;33.236;-97.118;2023-03-01T09:36:50;18.05;;;12.52;;
17773;SDS011;9011;33.236;-97.118;2023-03-01T09:39:21;17.25;;;12.52;;
17773;SDS011;9011;33.236;-97.118;2023-03-01T09:41:51;14.57;;;12.77;;
17773;SDS011;9011;33.236;-97.118;2023-03-01T09:44:29;14.10;;;11.50;;
17773;SDS011;9011;33.236;-97.118;2023-03-01T09:47:04;17.38;;;11.60;;
17773;SDS011;9011;33.236;-97.118;2023-03-01T09:49:33;16.55;;;12.35;;
17773;SDS011;9011;33.236;-97.118;2023-03-01T09:52:18;16.13;;;11.73;;
17773;SDS011;9011;33.236;-97.118;2023-03-01T09:54:52;16.77;;;12.00;;
17773;SDS011;9011;33.236;-97.118;2023-03-01T09:57:26;17.65;;;11.98;;
17773;SDS011;9011;33.236;-97.118;2023-03-01T10:00:03;19.83;;;11.90;;
17773;SDS011;9011;33.236;-97.118;2023-03-01T10:02:42;15.02;;;11.45;;
17773;SDS011;9011;33.236;-97.118;2023-03-01T10:05:19;17.25;;;11.77;;
17773;SDS011;9011;33.236;-97.118;2023-03-01T10:08:05;18.02;;;12.90;;
17773;SDS011;9011;33.236;-97.118;2023-03-01T10:10:48;13.43;;;11.07;;
17773;SDS011;9011;33.236;-97.118;2023-03-01T10:13:19;18.90;;;12.90;;
17773;SDS011;9011;33.236;-97.118;2023-03-01T10:15:52;17.20;;;12.57;;
17773;SDS011;9011;33.236;-97.118;2023-03-01T10:18:24;19.92;;;13.57;;
17773;SDS011;9011;33.236;-97.118;2023-03-01T10:20:55;17.90;;;12.90;;
17773;SDS011;9011;33.236;-97.118;2023-03-01T10:23:30;19.55;;;14.73;;
17773;SDS011;9011;33.236;-97.118;2023-03-01T10:26:12;17.17;;;12.57;;
17773;SDS011;9011;33.236;-97.118;2023-03-01T10:28:54;17.38;;;13.30;;
17773;SDS011;9011;33.236;-97.118;2023-03-01T10:31:34;18.70;;;12.68;;
17773;SDS011;9011;33.236;-97.118;2023-03-01T10:34:11;20.40;;;13.85;;
17773;SDS011;9011;33.236;-97.118;2023-03-01T10:36:41;20.52;;;13.40;;
17773;SDS011;9011;33.236;-97.118;2023-03-01T10:39:13;21.98;;;14.25;;
17773;SDS011;9011;33.236;-97.118;2023-03-01T10:42:02;18.67;;;13.65;;
17773;SDS011;9011;33.236;-97.118;2023-03-01T10:44:36;16.70;;;13.50;;
17773;SDS011;9011;33.236;-97.118;2023-03-01T10:47:12;17.25;;;13.23;;
17773;SDS011;9011;33.236;-97.118;2023-03-01T10:52:55;15.30;;;12.73;;
17773;SDS011;9011;33.236;-97.118;2023-03-01T10:55:29;15.98;;;12.77;;
17773;SDS011;9011;33.236;-97.118;2023-03-01T10:58:08;18.55;;;13.98;;
17773;SDS011;9011;33.236;-97.118;2023-03-01T11:00:50;18.20;;;13.82;;
17773;SDS011;9011;33.236;-97.118;2023-03-01T11:03:21;18.90;;;14.75;;
17773;SDS011;9011;33.236;-97.118;2023-03-01T11:05:52;18.40;;;13.95;;
17773;SDS011;9011;33.236;-97.118;2023-03-01T11:11:12;21.95;;;14.90;;
17773;SDS011;9011;33.236;-97.118;2023-03-01T11:15:43;17.33;;;13.55;;
17773;SDS011;9011;33.236;-97.118;2023-03-01T11:54:26;19.00;;;13.30;;
17773;SDS011;9011;33.236;-97.118;2023-03-01T12:41:25;19.13;;;14.23;;
17773;SDS011;9011;33.236;-97.118;2023-03-01T12:44:05;20.88;;;13.93;;
17773;SDS011;9011;33.236;-97.118;2023-03-01T12:46:48;16.48;;;13.55;;
17773;SDS011;9011;33.236;-97.118;2023-03-01T12:49:33;20.65;;;14.80;;
17773;SDS011;9011;33.236;-97.118;2023-03-01T12:52:09;24.67;;;15.23;;
17773;SDS011;9011;33.236;-97.118;2023-03-01T12:54:41;21.17;;;15.40;;
17773;SDS011;9011;33.236;-97.118;2023-03-01T12:57:13;21.63;;;15.10;;
17773;SDS011;9011;33.236;-97.118;2023-03-01T13:00:00;22.58;;;15.90;;
17773;SDS011;9011;33.236;-97.118;2023-03-01T13:02:37;21.00;;;16.38;;
17773;SDS011;9011;33.236;-97.118;2023-03-01T13:05:28;20.50;;;16.30;;
17773;SDS011;9011;33.236;-97.118;2023-03-01T13:08:05;23.75;;;16.13;;
17773;SDS011;9011;33.236;-97.118;2023-03-01T13:10:41;24.30;;;17.13;;
17773;SDS011;9011;33.236;-97.118;2023-03-01T13:13:18;21.70;;;16.83;;
17773;SDS011;9011;33.236;-97.118;2023-03-01T13:15:48;19.92;;;16.50;;
17773;SDS011;9011;33.236;-97.118;2023-03-01T13:18:28;22.35;;;16.58;;
17773;SDS011;9011;33.236;-97.118;2023-03-01T13:20:59;23.48;;;16.23;;
17773;SDS011;9011;33.236;-97.118;2023-03-01T13:23:32;21.05;;;16.60;;
17773;SDS011;9011;33.236;-97.118;2023-03-01T13:26:04;23.52;;;16.80;;
17773;SDS011;9011;33.236;-97.118;2023-03-01T13:28:55;22.48;;;15.50;;
17773;SDS011;9011;33.236;-97.118;2023-03-01T13:34:42;22.75;;;16.83;;
17773;SDS011;9011;33.236;-97.118;2023-03-01T13:37:33;24.23;;;16.73;;
17773;SDS011;9011;33.236;-97.118;2023-03-01T13:45:59;24.63;;;17.27;;
17773;SDS011;9011;33.236;-97.118;2023-03-01T13:48:29;24.67;;;17.35;;
17773;SDS011;9011;33.236;-97.118;2023-03-01T13:50:59;24.20;;;18.35;;
17773;SDS011;9011;33.236;-97.118;2023-03-01T13:53:29;25.85;;;17.55;;
17773;SDS011;9011;33.236;-97.118;2023-03-01T13:56:02;23.83;;;18.08;;
17773;SDS011;9011;33.236;-97.118;2023-03-01T13:58:49;25.90;;;18.55;;
17773;SDS011;9011;33.236;-97.118;2023-03-01T14:01:25;21.50;;;17.15;;
17773;SDS011;9011;33.236;-97.118;2023-03-01T14:04:00;25.23;;;16.60;;
17773;SDS011;9011;33.236;-97.118;2023-03-01T14:06:43;24.00;;;16.65;;
17773;SDS011;9011;33.236;-97.118;2023-03-01T14:09:14;23.95;;;16.58;;
17773;SDS011;9011;33.236;-97.118;2023-03-01T14:14:41;23.55;;;16.77;;
17773;SDS011;9011;33.236;-97.118;2023-03-01T14:20:16;28.42;;;17.23;;
17773;SDS011;9011;33.236;-97.118;2023-03-01T14:22:48;25.15;;;16.77;;
17773;SDS011;9011;33.236;-97.118;2023-03-01T14:25:21;27.58;;;18.33;;
17773;SDS011;9011;33.236;-97.118;2023-03-01T14:27:55;25.83;;;17.98;;
17773;SDS011;9011;33.236;-97.118;2023-03-01T14:30:26;24.15;;;15.63;;
17773;SDS011;9011;33.236;-97.118;2023-03-01T14:32:58;22.50;;;16.90;;
17773;SDS011;9011;33.236;-97.118;2023-03-01T14:35:31;25.15;;;16.05;;
17773;SDS011;9011;33.236;-97.118;2023-03-01T14:38:19;25.83;;;18.27;;
17773;SDS011;9011;33.236;-97.118;2023-03-01T14:40:48;25.70;;;19.05;;
17773;SDS011;9011;33.236;-97.118;2023-03-01T14:50:16;22.17;;;17.48;;
17773;SDS011;9011;33.236;-97.118;2023-03-01T14:53:16;24.02;;;18.20;;
17773;SDS011;9011;33.236;-97.118;2023-03-01T14:56:14;25.13;;;16.70;;
17773;SDS011;9011;33.236;-97.118;2023-03-01T14:58:58;20.92;;;17.02;;
17773;SDS011;9011;33.236;-97.118;2023-03-01T15:01:43;24.52;;;16.75;;
17773;SDS011;9011;33.236;-97.118;2023-03-01T15:04:17;24.85;;;17.70;;
17773;SDS011;9011;33.236;-97.118;2023-03-01T15:07:02;24.67;;;16.70;;
17773;SDS011;9011;33.236;-97.118;2023-03-01T15:09:33;21.52;;;16.30;;
17773;SDS011;9011;33.236;-97.118;2023-03-01T15:18:13;21.20;;;16.23;;
17773;SDS011;9011;33.236;-97.118;2023-03-01T15:20:51;31.38;;;17.85;;
17773;SDS011;9011;33.236;-97.118;2023-03-01T15:23:21;23.10;;;16.58;;
17773;SDS011;9011;33.236;-97.118;2023-03-01T15:25:53;19.02;;;16.40;;
17773;SDS011;9011;33.236;-97.118;2023-03-01T15:28:26;21.05;;;16.60;;
17773;SDS011;9011;33.236;-97.118;2023-03-01T15:30:57;20.77;;;15.32;;
17773;SDS011;9011;33.236;-97.118;2023-03-01T15:33:30;19.20;;;16.33;;
17773;SDS011;9011;33.236;-97.118;2023-03-01T15:39:01;18.92;;;14.93;;
17773;SDS011;9011;33.236;-97.118;2023-03-01T15:41:37;25.02;;;15.40;;
17773;SDS011;9011;33.236;-97.118;2023-03-01T15:44:15;20.67;;;15.85;;
17773;SDS011;9011;33.236;-97.118;2023-03-01T15:46:45;18.80;;;14.85;;
17773;SDS011;9011;33.236;-97.118;2023-03-01T15:52:09;21.02;;;15.38;;
17773;SDS011;9011;33.236;-97.118;2023-03-01T15:54:40;20.13;;;16.15;;
17773;SDS011;9011;33.236;-97.118;2023-03-01T15:57:12;24.67;;;15.55;;
17773;SDS011;9011;33.236;-97.118;2023-03-01T15:59:42;20.67;;;15.57;;
17773;SDS011;9011;33.236;-97.118;2023-03-01T16:02:10;19.05;;;15.32;;
17773;SDS011;9011;33.236;-97.118;2023-03-01T16:04:49;17.63;;;13.90;;
17773;SDS011;9011;33.236;-97.118;2023-03-01T16:07:40;16.63;;;14.75;;
17773;SDS011;9011;33.236;-97.118;2023-03-01T16:10:15;19.08;;;15.57;;
17773;SDS011;9011;33.236;-97.118;2023-03-01T16:12:49;21.90;;;14.88;;
17773;SDS011;9011;33.236;-97.118;2023-03-01T16:15:18;21.35;;;14.93;;
17773;SDS011;9011;33.236;-97.118;2023-03-01T16:17:48;24.13;;;15.40;;
17773;SDS011;9011;33.236;-97.118;2023-03-01T16:20:17;20.40;;;16.17;;
17773;SDS011;9011;33.236;-97.118;2023-03-01T16:22:46;18.95;;;14.68;;
17773;SDS011;9011;33.236;-97.118;2023-03-01T16:25:17;20.58;;;15.43;;
17773;SDS011;9011;33.236;-97.118;2023-03-01T16:27:49;18.77;;;14.90;;
17773;SDS011;9011;33.236;-97.118;2023-03-01T16:30:21;19.90;;;14.80;;
17773;SDS011;9011;33.236;-97.118;2023-03-01T16:32:53;15.60;;;13.20;;
17773;SDS011;9011;33.236;-97.118;2023-03-01T16:35:21;20.25;;;15.10;;
17773;SDS011;9011;33.236;-97.118;2023-03-01T16:37:50;18.50;;;13.82;;
17773;SDS011;9011;33.236;-97.118;2023-03-01T16:40:19;18.30;;;13.25;;
17773;SDS011;9011;33.236;-97.118;2023-03-01T16:42:51;14.60;;;10.27;;
17773;SDS011;9011;33.236;-97.118;2023-03-01T16:45:20;9.07;;;6.45;;
17773;SDS011;9011;33.236;-97.118;2023-03-01T16:47:49;10.02;;;4.15;;
17773;SDS011;9011;33.236;-97.118;2023-03-01T16:50:17;8.52;;;3.90;;
17773;SDS011;9011;33.236;-97.118;2023-03-01T16:52:46;6.82;;;3.38;;
17773;SDS011;9011;33.236;-97.118;2023-03-01T16:55:14;6.88;;;3.55;;
17773;SDS011;9011;33.236;-97.118;2023-03-01T16:57:43;7.10;;;3.30;;
17773;SDS011;9011;33.236;-97.118;2023-03-01T17:00:14;5.28;;;2.78;;
17773;SDS011;9011;33.236;-97.118;2023-03-01T17:02:43;9.18;;;2.72;;
17773;SDS011;9011;33.236;-97.118;2023-03-01T17:05:12;7.32;;;3.22;;
17773;SDS011;9011;33.236;-97.118;2023-03-01T17:07:40;10.65;;;3.38;;
17773;SDS011;9011;33.236;-97.118;2023-03-01T17:10:09;8.48;;;2.92;;
17773;SDS011;9011;33.236;-97.118;2023-03-01T17:12:38;6.53;;;2.45;;
17773;SDS011;9011;33.236;-97.118;2023-03-01T17:15:07;6.97;;;3.13;;
17773;SDS011;9011;33.236;-97.118;2023-03-01T17:17:39;6.30;;;2.60;;
17773;SDS011;9011;33.236;-97.118;2023-03-01T17:20:08;4.25;;;2.05;;
17773;SDS011;9011;33.236;-97.118;2023-03-01T17:22:37;7.43;;;2.40;;
17773;SDS011;9011;33.236;-97.118;2023-03-01T17:25:07;6.72;;;2.70;;
17773;SDS011;9011;33.236;-97.118;2023-03-01T17:27:52;5.38;;;2.22;;
17773;SDS011;9011;33.236;-97.118;2023-03-01T17:30:38;5.60;;;2.47;;
17773;SDS011;9011;33.236;-97.118;2023-03-01T17:36:32;9.95;;;2.88;;
17773;SDS011;9011;33.236;-97.118;2023-03-01T17:39:09;7.05;;;2.90;;
17773;SDS011;9011;33.236;-97.118;2023-03-01T17:41:39;7.13;;;2.47;;
17773;SDS011;9011;33.236;-97.118;2023-03-01T17:44:09;7.43;;;2.60;;
17773;SDS011;9011;33.236;-97.118;2023-03-01T17:46:41;5.78;;;2.42;;
17773;SDS011;9011;33.236;-97.118;2023-03-01T17:49:37;7.22;;;2.60;;